createdAt,value
2018-02-18T00:00:14.685Z,-0.15
2018-02-18T00:01:14.638Z,-0.12
2018-02-18T00:02:14.634Z,-0.16
2018-02-18T00:03:14.680Z,-0.15
2018-02-18T00:04:14.656Z,-0.17
2018-02-18T00:05:14.736Z,-0.15
2018-02-18T00:06:14.677Z,-0.13
2018-02-18T00:07:14.661Z,-0.16
2018-02-18T00:08:14.665Z,-0.18
2018-02-18T00:09:14.728Z,-0.22
2018-02-18T00:10:14.848Z,-0.23
2018-02-18T00:11:14.869Z,-0.22
2018-02-18T00:12:14.866Z,-0.2
2018-02-18T00:13:14.658Z,-0.19
2018-02-18T00:14:14.825Z,-0.22
2018-02-18T00:15:14.843Z,-0.25
2018-02-18T00:16:14.838Z,-0.2
2018-02-18T00:17:14.675Z,-0.23
2018-02-18T00:18:14.694Z,-0.19
2018-02-18T00:19:14.686Z,-0.22
2018-02-18T00:20:14.714Z,-0.2
2018-02-18T00:21:14.700Z,-0.2
2018-02-18T00:22:14.672Z,-0.24
2018-02-18T00:23:14.728Z,-0.26
2018-02-18T00:24:14.747Z,-0.26
2018-02-18T00:25:14.710Z,-0.27
2018-02-18T00:26:14.704Z,-0.28
2018-02-18T00:27:14.694Z,-0.23
2018-02-18T00:28:14.698Z,-0.26
2018-02-18T00:29:14.708Z,-0.27
2018-02-18T00:30:15.282Z,-0.42
2018-02-18T00:31:14.705Z,-0.44
2018-02-18T00:32:14.722Z,-0.42
2018-02-18T00:33:14.712Z,-0.37
2018-02-18T00:34:14.709Z,-0.37
2018-02-18T00:35:14.750Z,-0.38
2018-02-18T00:36:14.724Z,-0.47
2018-02-18T00:37:14.726Z,-0.47
2018-02-18T00:38:14.724Z,-0.45
2018-02-18T00:39:14.736Z,-0.31
2018-02-18T00:40:14.778Z,-0.34
2018-02-18T00:41:14.758Z,-0.38
2018-02-18T00:42:14.772Z,-0.35
2018-02-18T00:43:14.760Z,-0.4
2018-02-18T00:44:14.764Z,-0.36
2018-02-18T00:45:14.761Z,-0.39
2018-02-18T00:46:14.777Z,-0.39
2018-02-18T00:47:14.809Z,-0.35
2018-02-18T00:48:14.781Z,-0.39
2018-02-18T00:49:14.786Z,-0.38
2018-02-18T00:50:14.781Z,-0.5
2018-02-18T00:51:14.794Z,-0.5
2018-02-18T00:52:14.801Z,-0.48
2018-02-18T00:53:14.810Z,-0.42
2018-02-18T00:54:14.952Z,-0.44
2018-02-18T00:55:14.931Z,-0.46
2018-02-18T00:56:14.797Z,-0.5
2018-02-18T00:57:14.810Z,-0.56
2018-02-18T00:58:14.987Z,-0.64
2018-02-18T00:59:14.985Z,-0.54
2018-02-18T01:00:14.974Z,-0.51
2018-02-18T01:01:14.826Z,-0.56
2018-02-18T01:02:14.829Z,-0.61
2018-02-18T01:03:14.818Z,-0.67
2018-02-18T01:04:14.848Z,-0.63
2018-02-18T01:05:14.991Z,-0.6
2018-02-18T01:06:14.982Z,-0.59
2018-02-18T01:07:14.833Z,-0.57
2018-02-18T01:08:14.838Z,-0.58
2018-02-18T01:09:15.003Z,-0.56
2018-02-18T01:10:15.024Z,-0.58
2018-02-18T01:11:15.002Z,-0.55
2018-02-18T01:12:15.006Z,-0.58
2018-02-18T01:13:14.856Z,-0.58
2018-02-18T01:14:15.081Z,-0.58
2018-02-18T01:15:15.178Z,-0.61
2018-02-18T01:16:15.017Z,-0.58
2018-02-18T01:17:15.023Z,-0.58
2018-02-18T01:18:15.049Z,-0.6
2018-02-18T01:19:14.871Z,-0.65
2018-02-18T01:20:14.921Z,-0.74
2018-02-18T01:21:14.882Z,-0.78
2018-02-18T01:22:14.885Z,-0.76
2018-02-18T01:23:14.893Z,-0.75
2018-02-18T01:24:14.890Z,-0.74
2018-02-18T01:25:14.923Z,-0.74
2018-02-18T01:26:14.880Z,-0.73
2018-02-18T01:27:14.900Z,-0.72
2018-02-18T01:28:15.059Z,-0.72
2018-02-18T01:29:14.902Z,-0.76
2018-02-18T01:30:14.899Z,-0.74
2018-02-18T01:31:15.063Z,-0.76
2018-02-18T01:32:14.912Z,-0.75
2018-02-18T01:33:14.924Z,-0.76
2018-02-18T01:34:14.924Z,-0.73
2018-02-18T01:35:14.919Z,-0.74
2018-02-18T01:36:15.109Z,-0.79
2018-02-18T01:37:15.200Z,-0.83
2018-02-18T01:38:14.940Z,-0.84
2018-02-18T01:39:14.950Z,-0.8
2018-02-18T01:40:14.951Z,-0.8
2018-02-18T01:41:14.948Z,-0.82
2018-02-18T01:42:14.982Z,-0.86
2018-02-18T01:43:14.970Z,-0.86
2018-02-18T01:44:14.967Z,-0.81
2018-02-18T01:45:14.978Z,-0.79
2018-02-18T01:46:14.966Z,-0.78
2018-02-18T01:47:15.188Z,-0.84
2018-02-18T01:48:14.985Z,-0.9
2018-02-18T01:49:14.983Z,-0.9
2018-02-18T01:50:14.990Z,-0.92
2018-02-18T01:51:15.006Z,-0.91
2018-02-18T01:52:15.017Z,-0.85
2018-02-18T01:53:14.990Z,-0.95
2018-02-18T01:54:14.990Z,-1.01
2018-02-18T01:55:15.002Z,-0.99
2018-02-18T01:56:15.014Z,-1.03
2018-02-18T01:57:15.011Z,-1.06
2018-02-18T01:58:15.005Z,-1.11
2018-02-18T01:59:15.429Z,-1.1
2018-02-18T02:00:15.019Z,-1.11
2018-02-18T02:01:15.015Z,-1.07
2018-02-18T02:02:15.367Z,-1.08
2018-02-18T02:03:15.019Z,-1.1
2018-02-18T02:04:15.023Z,-1.08
2018-02-18T02:05:15.177Z,-1.08
2018-02-18T02:06:15.197Z,-1.05
2018-02-18T02:07:15.533Z,-1.06
2018-02-18T02:08:15.207Z,-1.08
2018-02-18T02:09:15.196Z,-1.1
2018-02-18T02:10:15.242Z,-1.06
2018-02-18T02:11:15.213Z,-1.08
2018-02-18T02:12:15.255Z,-1.11
2018-02-18T02:13:15.222Z,-1.09
2018-02-18T02:14:15.108Z,-1.12
2018-02-18T02:15:15.228Z,-1.17
2018-02-18T02:16:15.281Z,-1.23
2018-02-18T02:17:15.241Z,-1.29
2018-02-18T02:18:15.242Z,-1.25
2018-02-18T02:19:15.106Z,-1.28
2018-02-18T02:20:15.105Z,-1.31
2018-02-18T02:21:15.275Z,-1.31
2018-02-18T02:22:15.271Z,-1.32
2018-02-18T02:23:15.123Z,-1.29
2018-02-18T02:24:15.096Z,-1.27
2018-02-18T02:25:15.105Z,-1.28
2018-02-18T02:26:15.130Z,-1.37
2018-02-18T02:27:15.119Z,-1.36
2018-02-18T02:28:15.189Z,-1.34
2018-02-18T02:29:15.129Z,-1.35
2018-02-18T02:30:15.153Z,-1.37
2018-02-18T02:31:15.161Z,-1.33
2018-02-18T02:32:15.168Z,-1.4
2018-02-18T02:33:15.177Z,-1.45
2018-02-18T02:34:15.154Z,-1.47
2018-02-18T02:35:15.164Z,-1.45
2018-02-18T02:36:15.176Z,-1.48
2018-02-18T02:37:15.157Z,-1.5
2018-02-18T02:38:15.482Z,-1.49
2018-02-18T02:39:15.172Z,-1.49
2018-02-18T02:40:15.167Z,-1.58
2018-02-18T02:41:15.201Z,-1.57
2018-02-18T02:42:15.169Z,-1.56
2018-02-18T02:43:15.331Z,-1.71
2018-02-18T02:44:15.171Z,-1.7
2018-02-18T02:45:15.165Z,-1.67
2018-02-18T02:46:15.159Z,-1.67
2018-02-18T02:47:15.174Z,-1.7
2018-02-18T02:48:15.202Z,-1.67
2018-02-18T02:49:15.164Z,-1.7
2018-02-18T02:50:15.189Z,-1.73
2018-02-18T02:51:15.187Z,-1.72
2018-02-18T02:52:15.405Z,-1.75
2018-02-18T02:53:15.482Z,-1.71
2018-02-18T02:54:15.187Z,-1.73
2018-02-18T02:55:15.197Z,-1.78
2018-02-18T02:56:15.206Z,-1.78
2018-02-18T02:57:15.208Z,-1.79
2018-02-18T02:58:15.215Z,-1.79
2018-02-18T02:59:15.196Z,-1.8
2018-02-18T03:00:15.200Z,-1.81
2018-02-18T03:01:15.206Z,-1.82
2018-02-18T03:02:15.268Z,-1.85
2018-02-18T03:03:15.251Z,-1.88
2018-02-18T03:04:15.240Z,-1.85
2018-02-18T03:05:15.229Z,-1.87
2018-02-18T03:06:15.235Z,-1.9
2018-02-18T03:07:15.243Z,-1.95
2018-02-18T03:08:15.265Z,-2.01
2018-02-18T03:09:15.258Z,-2
2018-02-18T03:10:15.265Z,-2.03
2018-02-18T03:11:15.259Z,-2.03
2018-02-18T03:12:15.278Z,-2.02
2018-02-18T03:13:15.300Z,-2.07
2018-02-18T03:14:15.312Z,-2.05
2018-02-18T03:15:15.325Z,-2.09
2018-02-18T03:16:15.282Z,-2.07
2018-02-18T03:17:15.447Z,-2.07
2018-02-18T03:18:15.472Z,-2.06
2018-02-18T03:19:15.525Z,-2.17
2018-02-18T03:20:15.456Z,-2.28
2018-02-18T03:21:15.462Z,-2.21
2018-02-18T03:22:15.476Z,-2.2
2018-02-18T03:23:15.504Z,-2.32
2018-02-18T03:24:15.479Z,-2.36
2018-02-18T03:25:15.496Z,-2.35
2018-02-18T03:26:15.494Z,-2.29
2018-02-18T03:27:15.483Z,-2.32
2018-02-18T03:28:15.520Z,-2.33
2018-02-18T03:29:15.482Z,-2.37
2018-02-18T03:30:15.558Z,-2.38
2018-02-18T03:31:15.341Z,-2.39
2018-02-18T03:32:15.482Z,-2.41
2018-02-18T03:33:15.532Z,-2.36
2018-02-18T03:34:15.514Z,-2.35
2018-02-18T03:35:15.496Z,-2.35
2018-02-18T03:36:15.501Z,-2.43
2018-02-18T03:37:15.510Z,-2.42
2018-02-18T03:38:15.517Z,-2.4
2018-02-18T03:39:15.536Z,-2.41
2018-02-18T03:40:15.378Z,-2.4
2018-02-18T03:41:15.508Z,-2.4
2018-02-18T03:42:15.559Z,-2.41
2018-02-18T03:43:15.380Z,-2.41
2018-02-18T03:44:15.528Z,-2.4
2018-02-18T03:45:15.707Z,-2.41
2018-02-18T03:46:15.371Z,-2.58
2018-02-18T03:47:15.395Z,-2.56
2018-02-18T03:48:15.392Z,-2.49
2018-02-18T03:49:15.379Z,-2.49
2018-02-18T03:50:15.398Z,-2.51
2018-02-18T03:51:15.398Z,-2.52
2018-02-18T03:52:15.396Z,-2.49
2018-02-18T03:53:15.411Z,-2.51
2018-02-18T03:54:15.410Z,-2.51
2018-02-18T03:55:15.413Z,-2.52
2018-02-18T03:56:15.524Z,-2.57
2018-02-18T03:57:15.440Z,-2.56
2018-02-18T03:58:15.431Z,-2.53
2018-02-18T03:59:15.427Z,-2.52
2018-02-18T04:00:15.443Z,-2.53
2018-02-18T04:01:15.456Z,-2.52
2018-02-18T04:02:15.531Z,-2.54
2018-02-18T04:03:15.603Z,-2.65
2018-02-18T04:04:15.439Z,-2.68
2018-02-18T04:05:15.450Z,-2.63
2018-02-18T04:06:15.450Z,-2.73
2018-02-18T04:07:15.478Z,-2.73
2018-02-18T04:08:15.487Z,-2.71
2018-02-18T04:09:15.512Z,-2.66
2018-02-18T04:10:15.480Z,-2.64
2018-02-18T04:11:15.508Z,-2.63
2018-02-18T04:12:15.499Z,-2.65
2018-02-18T04:13:15.528Z,-2.62
2018-02-18T04:14:15.521Z,-2.65
2018-02-18T04:15:15.666Z,-2.65
2018-02-18T04:16:15.531Z,-2.65
2018-02-18T04:17:15.530Z,-2.64
2018-02-18T04:18:15.541Z,-2.66
2018-02-18T04:19:15.814Z,-2.65
2018-02-18T04:20:15.556Z,-2.64
2018-02-18T04:21:15.732Z,-2.65
2018-02-18T04:22:15.560Z,-2.64
2018-02-18T04:23:15.566Z,-2.66
2018-02-18T04:24:15.571Z,-2.65
2018-02-18T04:25:15.626Z,-2.63
2018-02-18T04:26:15.625Z,-2.68
2018-02-18T04:27:15.577Z,-2.64
2018-02-18T04:28:15.584Z,-2.65
2018-02-18T04:29:15.742Z,-2.64
2018-02-18T04:30:15.736Z,-2.67
2018-02-18T04:31:15.798Z,-2.72
2018-02-18T04:32:15.761Z,-2.69
2018-02-18T04:33:15.756Z,-2.65
2018-02-18T04:34:15.773Z,-2.63
2018-02-18T04:35:15.605Z,-2.63
2018-02-18T04:36:15.789Z,-2.74
2018-02-18T04:37:15.780Z,-2.68
2018-02-18T04:38:15.779Z,-2.7
2018-02-18T04:39:15.797Z,-2.78
2018-02-18T04:40:15.787Z,-2.75
2018-02-18T04:41:15.793Z,-2.77
2018-02-18T04:42:15.872Z,-2.84
2018-02-18T04:43:15.846Z,-2.88
2018-02-18T04:44:15.798Z,-2.82
2018-02-18T04:45:15.803Z,-2.71
2018-02-18T04:46:15.815Z,-2.63
2018-02-18T04:47:15.808Z,-2.64
2018-02-18T04:48:15.694Z,-2.65
2018-02-18T04:49:15.672Z,-2.7
2018-02-18T04:50:15.661Z,-2.67
2018-02-18T04:51:15.716Z,-2.7
2018-02-18T04:52:15.818Z,-2.65
2018-02-18T04:53:15.694Z,-2.67
2018-02-18T04:54:15.677Z,-2.68
2018-02-18T04:55:15.685Z,-2.66
2018-02-18T04:56:15.688Z,-2.64
2018-02-18T04:57:15.722Z,-2.66
2018-02-18T04:58:15.716Z,-2.63
2018-02-18T04:59:15.706Z,-2.71
2018-02-18T05:00:15.743Z,-2.77
2018-02-18T05:01:15.731Z,-2.76
2018-02-18T05:02:15.722Z,-2.74
2018-02-18T05:03:15.766Z,-2.69
2018-02-18T05:04:15.742Z,-2.67
2018-02-18T05:05:15.738Z,-2.7
2018-02-18T05:06:15.733Z,-2.68
2018-02-18T05:07:15.743Z,-2.7
2018-02-18T05:08:15.763Z,-2.7
2018-02-18T05:09:15.748Z,-2.66
2018-02-18T05:10:15.756Z,-2.68
2018-02-18T05:11:15.761Z,-2.7
2018-02-18T05:12:15.765Z,-2.63
2018-02-18T05:13:15.760Z,-2.66
2018-02-18T05:14:15.747Z,-2.5
2018-02-18T05:15:15.762Z,-2.46
2018-02-18T05:16:15.760Z,-2.46
2018-02-18T05:17:15.767Z,-2.47
2018-02-18T05:18:15.772Z,-2.52
2018-02-18T05:19:15.772Z,-2.47
2018-02-18T05:20:15.758Z,-2.49
2018-02-18T05:21:15.813Z,-2.44
2018-02-18T05:22:15.771Z,-2.45
2018-02-18T05:23:15.798Z,-2.48
2018-02-18T05:24:15.800Z,-2.43
2018-02-18T05:25:15.797Z,-2.29
2018-02-18T05:26:15.805Z,-2.21
2018-02-18T05:27:15.842Z,-2.19
2018-02-18T05:28:15.812Z,-2.11
2018-02-18T05:29:15.855Z,-2.1
2018-02-18T05:30:15.824Z,-2.1
2018-02-18T05:31:15.849Z,-2.11
2018-02-18T05:32:15.840Z,-2.11
2018-02-18T05:33:15.840Z,-2.1
2018-02-18T05:34:15.839Z,-2.07
2018-02-18T05:35:15.852Z,-2.06
2018-02-18T05:36:15.869Z,-2.08
2018-02-18T05:37:15.887Z,-2.1
2018-02-18T05:38:15.831Z,-2.16
2018-02-18T05:39:15.846Z,-2.11
2018-02-18T05:40:16.026Z,-2.12
2018-02-18T05:41:16.001Z,-2.1
2018-02-18T05:42:16.022Z,-2.15
2018-02-18T05:43:16.016Z,-2.19
2018-02-18T05:44:16.037Z,-2.15
2018-02-18T05:45:16.028Z,-2.2
2018-02-18T05:46:16.100Z,-2.17
2018-02-18T05:47:16.069Z,-2.18
2018-02-18T05:48:16.082Z,-2.24
2018-02-18T05:49:16.060Z,-2.2
2018-02-18T05:50:16.048Z,-2.22
2018-02-18T05:51:16.049Z,-2.19
2018-02-18T05:52:16.128Z,-2.23
2018-02-18T05:53:16.070Z,-2.22
2018-02-18T05:54:16.076Z,-2.24
2018-02-18T05:55:16.093Z,-2.26
2018-02-18T05:56:16.088Z,-2.33
2018-02-18T05:57:16.127Z,-2.58
2018-02-18T05:58:15.915Z,-2.48
2018-02-18T05:59:15.944Z,-2.44
2018-02-18T06:00:15.937Z,-2.46
2018-02-18T06:01:15.949Z,-2.56
2018-02-18T06:02:15.976Z,-2.56
2018-02-18T06:03:15.948Z,-2.5
2018-02-18T06:04:15.954Z,-2.55
2018-02-18T06:05:15.958Z,-2.61
2018-02-18T06:06:15.957Z,-2.62
2018-02-18T06:07:15.973Z,-2.62
2018-02-18T06:08:15.978Z,-2.58
2018-02-18T06:09:15.971Z,-2.58
2018-02-18T06:10:16.008Z,-2.58
2018-02-18T06:11:15.988Z,-2.65
2018-02-18T06:12:16.005Z,-2.67
2018-02-18T06:13:15.994Z,-2.67
2018-02-18T06:14:15.999Z,-2.67
2018-02-18T06:15:16.022Z,-2.65
2018-02-18T06:16:15.998Z,-2.63
2018-02-18T06:17:16.056Z,-2.65
2018-02-18T06:18:16.012Z,-2.65
2018-02-18T06:19:16.060Z,-2.66
2018-02-18T06:20:16.035Z,-2.67
2018-02-18T06:21:16.015Z,-2.69
2018-02-18T06:22:16.055Z,-2.71
2018-02-18T06:23:16.050Z,-2.68
2018-02-18T06:24:16.014Z,-2.7
2018-02-18T06:25:16.016Z,-2.68
2018-02-18T06:26:16.028Z,-2.7
2018-02-18T06:27:16.118Z,-2.73
2018-02-18T06:28:16.052Z,-2.69
2018-02-18T06:29:16.086Z,-2.71
2018-02-18T06:30:16.060Z,-2.73
2018-02-18T06:31:16.059Z,-2.72
2018-02-18T06:32:16.166Z,-2.75
2018-02-18T06:33:16.116Z,-2.74
2018-02-18T06:34:16.099Z,-2.75
2018-02-18T06:35:16.068Z,-2.79
2018-02-18T06:36:16.075Z,-2.75
2018-02-18T06:37:16.084Z,-2.81
2018-02-18T06:38:16.319Z,-2.81
2018-02-18T06:39:16.098Z,-2.8
2018-02-18T06:40:16.151Z,-2.86
2018-02-18T06:41:16.110Z,-2.86
2018-02-18T06:42:16.097Z,-2.82
2018-02-18T06:43:16.273Z,-2.83
2018-02-18T06:44:16.325Z,-2.82
2018-02-18T06:45:16.107Z,-2.83
2018-02-18T06:46:16.118Z,-2.82
2018-02-18T06:47:16.106Z,-2.86
2018-02-18T06:48:16.134Z,-2.83
2018-02-18T06:49:16.135Z,-2.87
2018-02-18T06:50:16.130Z,-2.87
2018-02-18T06:51:16.181Z,-2.88
2018-02-18T06:52:16.386Z,-2.88
2018-02-18T06:53:16.306Z,-2.88
2018-02-18T06:54:16.326Z,-2.92
2018-02-18T06:55:16.170Z,-2.87
2018-02-18T06:56:16.320Z,-2.91
2018-02-18T06:57:16.338Z,-2.88
2018-02-18T06:58:16.328Z,-2.91
2018-02-18T06:59:16.317Z,-2.9
2018-02-18T07:00:16.342Z,-2.9
2018-02-18T07:01:16.342Z,-2.88
2018-02-18T07:02:16.391Z,-3.08
2018-02-18T07:03:16.179Z,-3.04
2018-02-18T07:04:16.342Z,-3.08
2018-02-18T07:05:16.348Z,-3.04
2018-02-18T07:06:16.347Z,-3.02
2018-02-18T07:07:16.353Z,-3.08
2018-02-18T07:08:16.361Z,-3.17
2018-02-18T07:09:16.350Z,-3.24
2018-02-18T07:10:16.219Z,-3.18
2018-02-18T07:11:16.219Z,-3.25
2018-02-18T07:12:16.234Z,-3.28
2018-02-18T07:13:16.224Z,-3.28
2018-02-18T07:14:16.223Z,-3.27
2018-02-18T07:15:16.248Z,-3.26
2018-02-18T07:16:16.222Z,-3.19
2018-02-18T07:17:16.256Z,-3.1
2018-02-18T07:18:16.244Z,-3.17
2018-02-18T07:19:16.456Z,-3.13
2018-02-18T07:20:16.294Z,-3.19
2018-02-18T07:21:16.262Z,-3.2
2018-02-18T07:22:16.243Z,-3.2
2018-02-18T07:23:16.261Z,-3.16
2018-02-18T07:24:16.250Z,-3.05
2018-02-18T07:25:16.252Z,-3.04
2018-02-18T07:26:16.255Z,-3.12
2018-02-18T07:27:16.263Z,-3.17
2018-02-18T07:28:16.748Z,-3.09
2018-02-18T07:29:16.412Z,-3.07
2018-02-18T07:30:16.284Z,-2.97
2018-02-18T07:31:16.273Z,-3
2018-02-18T07:32:16.280Z,-3.03
2018-02-18T07:33:16.306Z,-3.07
2018-02-18T07:34:16.303Z,-3.05
2018-02-18T07:35:16.281Z,-3.04
2018-02-18T07:36:16.282Z,-3
2018-02-18T07:37:16.304Z,-2.96
2018-02-18T07:38:16.365Z,-2.95
2018-02-18T07:39:16.306Z,-2.87
2018-02-18T07:40:16.301Z,-2.88
2018-02-18T07:41:16.482Z,-2.88
2018-02-18T07:42:16.446Z,-2.85
2018-02-18T07:43:16.336Z,-2.8
2018-02-18T07:44:16.330Z,-2.84
2018-02-18T07:45:16.485Z,-2.75
2018-02-18T07:46:16.341Z,-2.74
2018-02-18T07:47:16.376Z,-2.76
2018-02-18T07:48:17.435Z,-2.7
2018-02-18T07:49:16.355Z,-2.68
2018-02-18T07:50:16.458Z,-2.61
2018-02-18T07:51:16.349Z,-2.54
2018-02-18T07:52:16.364Z,-2.53
2018-02-18T07:53:16.363Z,-2.5
2018-02-18T07:54:16.397Z,-2.52
2018-02-18T07:55:16.359Z,-2.52
2018-02-18T07:56:16.361Z,-2.45
2018-02-18T07:57:16.382Z,-2.41
2018-02-18T07:58:16.390Z,-2.32
2018-02-18T07:59:16.371Z,-2.21
2018-02-18T08:00:16.385Z,-2.2
2018-02-18T08:01:16.395Z,-2.21
2018-02-18T08:02:16.400Z,-2.18
2018-02-18T08:03:16.556Z,-2.18
2018-02-18T08:04:16.550Z,-2.14
2018-02-18T08:05:16.544Z,-2.09
2018-02-18T08:06:16.775Z,-2.05
2018-02-18T08:07:16.584Z,-1.95
2018-02-18T08:08:16.573Z,-1.94
2018-02-18T08:09:16.598Z,-1.92
2018-02-18T08:10:16.597Z,-1.88
2018-02-18T08:11:16.615Z,-1.79
2018-02-18T08:12:16.581Z,-1.75
2018-02-18T08:13:16.621Z,-1.74
2018-02-18T08:14:16.614Z,-1.7
2018-02-18T08:15:16.604Z,-1.64
2018-02-18T08:16:16.437Z,-1.67
2018-02-18T08:17:16.591Z,-1.64
2018-02-18T08:18:16.596Z,-1.67
2018-02-18T08:19:16.620Z,-1.63
2018-02-18T08:20:16.607Z,-1.61
2018-02-18T08:21:16.451Z,-1.53
2018-02-18T08:22:16.445Z,-1.51
2018-02-18T08:23:16.455Z,-1.68
2018-02-18T08:24:16.445Z,-1.64
2018-02-18T08:25:16.462Z,-1.59
2018-02-18T08:26:16.481Z,-1.54
2018-02-18T08:27:16.456Z,-1.51
2018-02-18T08:28:16.499Z,-1.47
2018-02-18T08:29:16.476Z,-1.5
2018-02-18T08:30:16.477Z,-1.4
2018-02-18T08:31:16.484Z,-1.34
2018-02-18T08:32:16.471Z,-1.33
2018-02-18T08:33:16.469Z,-1.28
2018-02-18T08:34:16.470Z,-1.21
2018-02-18T08:35:17.475Z,-1.22
2018-02-18T08:36:16.513Z,-1.15
2018-02-18T08:37:16.866Z,-1.23
2018-02-18T08:38:16.497Z,-1.19
2018-02-18T08:39:16.522Z,-1.15
2018-02-18T08:40:16.512Z,-1.15
2018-02-18T08:41:16.537Z,-1.19
2018-02-18T08:42:16.497Z,-1.23
2018-02-18T08:43:16.500Z,-1.24
2018-02-18T08:44:17.256Z,-1.26
2018-02-18T08:45:16.567Z,-1.24
2018-02-18T08:46:16.518Z,-1.23
2018-02-18T08:47:16.624Z,-1.16
2018-02-18T08:48:16.524Z,-1.12
2018-02-18T08:49:16.523Z,-1.13
2018-02-18T08:50:16.523Z,-1.17
2018-02-18T08:51:16.688Z,-1.1
2018-02-18T08:52:16.689Z,-1.09
2018-02-18T08:53:16.541Z,-1.09
2018-02-18T08:54:16.556Z,-1.02
2018-02-18T08:55:16.544Z,-1.14
2018-02-18T08:56:16.532Z,-1.19
2018-02-18T08:57:16.543Z,-1.16
2018-02-18T08:58:16.558Z,-1.08
2018-02-18T08:59:16.587Z,-1.11
2018-02-18T09:00:16.560Z,-1.07
2018-02-18T09:01:16.567Z,-1.1
2018-02-18T09:02:16.589Z,-1.16
2018-02-18T09:03:16.586Z,-1.07
2018-02-18T09:04:16.691Z,-1.03
2018-02-18T09:05:16.595Z,-1.11
2018-02-18T09:06:16.812Z,-1.15
2018-02-18T09:07:16.605Z,-1.06
2018-02-18T09:08:16.830Z,-1
2018-02-18T09:10:16.632Z,-0.94
2018-02-18T09:11:16.625Z,-0.88
2018-02-18T09:12:16.669Z,-0.85
2018-02-18T09:13:16.673Z,-0.82
2018-02-18T09:14:16.982Z,-0.9
2018-02-18T09:15:16.862Z,-0.85
2018-02-18T09:16:16.892Z,-0.87
2018-02-18T09:17:16.879Z,-0.8
2018-02-18T09:18:16.889Z,-0.73
2018-02-18T09:19:16.899Z,-0.65
2018-02-18T09:20:16.955Z,-0.59
2018-02-18T09:21:16.980Z,-0.56
2018-02-18T09:22:16.854Z,-0.51
2018-02-18T09:23:16.830Z,-0.53
2018-02-18T09:24:16.948Z,-0.47
2018-02-18T09:25:16.846Z,-0.5
2018-02-18T09:26:16.948Z,-0.5
2018-02-18T09:27:16.960Z,-0.47
2018-02-18T09:28:16.970Z,-0.49
2018-02-18T09:29:16.862Z,-0.38
2018-02-18T09:30:16.969Z,-0.4
2018-02-18T09:31:16.878Z,-0.48
2018-02-18T09:32:16.903Z,-0.56
2018-02-18T09:33:16.861Z,-0.48
2018-02-18T09:34:16.881Z,-0.48
2018-02-18T09:35:16.905Z,-0.48
2018-02-18T09:36:16.904Z,-0.47
2018-02-18T09:37:16.903Z,-0.35
2018-02-18T09:38:16.916Z,-0.33
2018-02-18T09:39:16.724Z,-0.31
2018-02-18T09:40:16.735Z,-0.36
2018-02-18T09:41:16.744Z,-0.41
2018-02-18T09:42:16.730Z,-0.4
2018-02-18T09:43:16.735Z,-0.33
2018-02-18T09:44:16.771Z,-0.34
2018-02-18T09:45:16.740Z,-0.26
2018-02-18T09:46:16.745Z,-0.15
2018-02-18T09:47:16.788Z,-0.15
2018-02-18T09:48:16.734Z,-0.18
2018-02-18T09:49:16.805Z,-0.28
2018-02-18T09:50:16.759Z,-0.33
2018-02-18T09:51:16.781Z,-0.19
2018-02-18T09:52:16.820Z,-0.22
2018-02-18T09:53:16.775Z,-0.16
2018-02-18T09:54:16.837Z,-0.14
2018-02-18T09:55:16.770Z,-0.06
2018-02-18T09:56:16.761Z,-0.1
2018-02-18T09:57:16.772Z,-0.02
2018-02-18T09:58:16.858Z,-0.1
2018-02-18T09:59:16.821Z,-0.06
2018-02-18T10:00:16.812Z,0.01
2018-02-18T10:01:16.788Z,0.06
2018-02-18T10:02:16.778Z,0.08
2018-02-18T10:03:16.790Z,0.1
2018-02-18T10:04:16.913Z,0.08
2018-02-18T10:05:16.917Z,0.04
2018-02-18T10:06:16.813Z,0.04
2018-02-18T10:07:16.809Z,0.14
2018-02-18T10:08:16.877Z,0.19
2018-02-18T10:09:16.804Z,0.05
2018-02-18T10:10:17.636Z,0.03
2018-02-18T10:11:16.896Z,0
2018-02-18T10:12:16.850Z,0.11
2018-02-18T10:13:16.833Z,0.14
2018-02-18T10:14:17.036Z,0.21
2018-02-18T10:15:16.827Z,0.16
2018-02-18T10:16:16.880Z,0.22
2018-02-18T10:17:16.810Z,0.22
2018-02-18T10:18:16.811Z,0.1
2018-02-18T10:19:16.802Z,0.13
2018-02-18T10:20:16.824Z,0.14
2018-02-18T10:21:16.930Z,0.13
2018-02-18T10:22:16.927Z,0.09
2018-02-18T10:23:16.920Z,0.29
2018-02-18T10:24:16.950Z,0.13
2018-02-18T10:25:17.510Z,0.09
2018-02-18T10:26:16.852Z,0.16
2018-02-18T10:27:17.057Z,0.14
2018-02-18T10:28:17.014Z,0.07
2018-02-18T10:29:17.297Z,0.1
2018-02-18T10:30:17.038Z,0.14
2018-02-18T10:31:17.048Z,0.18
2018-02-18T10:32:16.902Z,0.21
2018-02-18T10:33:17.124Z,0.22
2018-02-18T10:34:17.109Z,0.11
2018-02-18T10:35:17.041Z,0.19
2018-02-18T10:36:16.932Z,0.12
2018-02-18T10:37:17.033Z,0.06
2018-02-18T10:38:17.090Z,0.19
2018-02-18T10:39:16.941Z,0.26
2018-02-18T10:40:17.079Z,0.31
2018-02-18T10:41:16.945Z,0.28
2018-02-18T10:42:17.075Z,0.35
2018-02-18T10:43:17.092Z,0.45
2018-02-18T10:44:17.118Z,0.44
2018-02-18T10:45:16.985Z,0.47
2018-02-18T10:46:17.103Z,0.44
2018-02-18T10:47:17.108Z,0.35
2018-02-18T10:48:17.206Z,0.31
2018-02-18T10:49:17.093Z,0.43
2018-02-18T10:50:17.127Z,0.5
2018-02-18T10:51:16.986Z,0.51
2018-02-18T10:52:16.956Z,0.44
2018-02-18T10:53:16.967Z,0.44
2018-02-18T10:54:17.337Z,0.58
2018-02-18T10:55:17.110Z,0.55
2018-02-18T10:56:17.116Z,0.55
2018-02-18T10:57:17.157Z,0.56
2018-02-18T10:58:16.961Z,0.47
2018-02-18T10:59:16.978Z,0.37
2018-02-18T11:00:17.152Z,0.52
2018-02-18T11:01:17.155Z,0.68
2018-02-18T11:02:16.972Z,0.65
2018-02-18T11:03:17.101Z,0.6
2018-02-18T11:04:17.003Z,0.66
2018-02-18T11:05:17.007Z,0.65
2018-02-18T11:06:16.998Z,0.74
2018-02-18T11:07:17.016Z,0.79
2018-02-18T11:08:17.022Z,0.57
2018-02-18T11:09:17.017Z,0.56
2018-02-18T11:10:17.022Z,0.79
2018-02-18T11:11:17.009Z,0.73
2018-02-18T11:12:17.039Z,0.77
2018-02-18T11:13:17.030Z,0.86
2018-02-18T11:14:17.105Z,0.83
2018-02-18T11:15:17.013Z,0.91
2018-02-18T11:16:17.028Z,0.91
2018-02-18T11:17:17.036Z,0.93
2018-02-18T11:18:17.105Z,0.91
2018-02-18T11:19:17.047Z,0.97
2018-02-18T11:20:17.049Z,0.84
2018-02-18T11:21:17.100Z,0.87
2018-02-18T11:22:17.144Z,1.03
2018-02-18T11:23:17.216Z,0.97
2018-02-18T11:24:17.141Z,1
2018-02-18T11:25:17.074Z,0.94
2018-02-18T11:26:17.079Z,1.03
2018-02-18T11:27:17.098Z,0.94
2018-02-18T11:28:17.119Z,1.03
2018-02-18T11:29:17.095Z,0.98
2018-02-18T11:30:17.323Z,0.91
2018-02-18T11:31:17.083Z,0.9
2018-02-18T11:32:17.113Z,0.93
2018-02-18T11:33:17.212Z,1.11
2018-02-18T11:34:17.127Z,1.15
2018-02-18T11:35:17.114Z,1.19
2018-02-18T11:36:17.265Z,1.08
2018-02-18T11:37:17.133Z,1.25
2018-02-18T11:38:17.352Z,0.78
2018-02-18T11:39:17.295Z,0.66
2018-02-18T11:40:17.337Z,1
2018-02-18T11:41:17.358Z,1.09
2018-02-18T11:42:17.278Z,0.97
2018-02-18T11:43:17.127Z,1.06
2018-02-18T11:44:17.298Z,1.04
2018-02-18T11:45:17.311Z,1.18
2018-02-18T11:46:17.328Z,1.2
2018-02-18T11:47:17.300Z,1.31
2018-02-18T11:48:17.308Z,1.33
2018-02-18T11:49:17.156Z,1.33
2018-02-18T11:50:17.168Z,1.15
2018-02-18T11:51:17.209Z,1.16
2018-02-18T11:52:17.304Z,1.05
2018-02-18T11:53:17.305Z,1.3
2018-02-18T11:54:17.352Z,1.16
2018-02-18T11:55:17.329Z,1.15
2018-02-18T11:56:17.180Z,1.18
2018-02-18T11:57:17.381Z,1.04
2018-02-18T11:58:17.362Z,0.92
2018-02-18T11:59:17.208Z,1.24
2018-02-18T12:00:17.418Z,1.09
2018-02-18T12:01:17.395Z,1.03
2018-02-18T12:02:17.190Z,0.89
2018-02-18T12:03:17.446Z,1.2
2018-02-18T12:04:17.418Z,1.05
2018-02-18T12:05:17.204Z,0.99
2018-02-18T12:06:17.254Z,1.31
2018-02-18T12:07:17.221Z,1.34
2018-02-18T12:08:17.201Z,1.2
2018-02-18T12:09:17.493Z,1.28
2018-02-18T12:10:17.386Z,1.39
2018-02-18T12:11:17.235Z,1.04
2018-02-18T12:12:17.222Z,1.15
2018-02-18T12:13:17.227Z,1.03
2018-02-18T12:14:17.391Z,0.92
2018-02-18T12:15:17.262Z,1.26
2018-02-18T12:16:17.433Z,0.88
2018-02-18T12:17:17.232Z,0.95
2018-02-18T12:18:17.268Z,1.1
2018-02-18T12:19:17.326Z,1.02
2018-02-18T12:20:17.281Z,1.07
2018-02-18T12:21:17.242Z,1.28
2018-02-18T12:22:17.266Z,1.11
2018-02-18T12:23:17.247Z,1.2
2018-02-18T12:24:17.494Z,1.15
2018-02-18T12:25:17.425Z,1.17
2018-02-18T12:26:17.292Z,1.17
2018-02-18T12:27:17.450Z,1.07
2018-02-18T12:28:17.260Z,0.95
2018-02-18T12:29:17.440Z,0.94
2018-02-18T12:30:17.521Z,1.17
2018-02-18T12:31:17.299Z,1.19
2018-02-18T12:32:17.433Z,1.1
2018-02-18T12:33:17.539Z,0.98
2018-02-18T12:34:17.659Z,1.18
2018-02-18T12:35:17.304Z,1.13
2018-02-18T12:36:17.411Z,1.19
2018-02-18T12:37:17.464Z,1.16
2018-02-18T12:38:17.460Z,1.25
2018-02-18T12:39:17.328Z,1.13
2018-02-18T12:40:17.326Z,1.14
2018-02-18T12:41:17.331Z,1.34
2018-02-18T12:42:17.344Z,1.29
2018-02-18T12:43:17.315Z,1.48
2018-02-18T12:44:17.376Z,1.41
2018-02-18T12:45:17.330Z,1.05
2018-02-18T12:46:17.356Z,1.1
2018-02-18T12:47:17.661Z,1.17
2018-02-18T12:48:17.556Z,1
2018-02-18T12:49:17.542Z,1.15
2018-02-18T12:50:17.513Z,1.14
2018-02-18T12:51:17.658Z,1.11
2018-02-18T12:52:19.729Z,0.92
2018-02-18T12:53:17.532Z,0.77
2018-02-18T12:54:17.540Z,0.64
2018-02-18T12:55:17.533Z,0.88
2018-02-18T12:56:17.546Z,1.04
2018-02-18T12:57:17.556Z,1.18
2018-02-18T12:58:17.380Z,1.3
2018-02-18T12:59:17.395Z,1.01
2018-02-18T13:00:17.603Z,1
2018-02-18T13:01:17.555Z,1.12
2018-02-18T13:02:17.426Z,1.22
2018-02-18T13:03:17.516Z,1.18